Terminal Aerodrome Forecast
Issued by NWS

Current Version | Previous Version | Text Only | Print | Product List | Glossary Off
Versions: 1 2 3 4 5 6 7 8 9 10 11 12 13 14 15 16 17 18 19 20 21 22

000
FTUS41 KILN 170400 AAA
TAFLCK
TAF AMD
KLCK 170433Z 1705/1724 19005KT P6SM VCSH FEW025 BKN040
      TEMPO 1706/1708 BKN022
     FM170800 24006KT 2SM BR OVC008
     FM171400 32006KT P6SM BKN020
     FM171600 35006KT P6SM SKC=

USA.gov is the U.S. government's official web portal to all federal, state and local government web resources and services.